createdAt,value
2019-05-05T00:03:19.293Z,14.07
2019-05-05T00:13:30.400Z,14.20
2019-05-05T00:23:35.156Z,16.30
2019-05-05T00:33:39.908Z,20.93
2019-05-05T00:43:45.184Z,18.87
2019-05-05T00:53:50.114Z,26.33
2019-05-05T01:03:55.014Z,28.13
2019-05-05T01:13:59.793Z,32.53
2019-05-05T01:24:05.114Z,31.03
2019-05-05T01:34:11.944Z,24.17
2019-05-05T01:44:16.729Z,30.00
2019-05-05T01:54:21.541Z,22.27
2019-05-05T02:04:26.421Z,17.53
2019-05-05T02:14:31.202Z,10.57
2019-05-05T02:24:35.958Z,8.10
2019-05-05T02:34:45.505Z,6.77
2019-05-05T02:44:54.410Z,7.43
2019-05-05T02:54:58.844Z,7.93
2019-05-05T03:05:04.609Z,9.00
2019-05-05T03:15:10.833Z,8.60
2019-05-05T03:25:15.604Z,7.40
2019-05-05T03:35:20.464Z,7.90
2019-05-05T03:45:34.164Z,13.30
2019-05-05T03:55:39.749Z,12.13
2019-05-05T04:05:46.091Z,15.87
2019-05-05T04:16:08.837Z,14.90
2019-05-05T04:26:14.797Z,15.07
2019-05-05T04:36:19.553Z,14.67
2019-05-05T04:46:24.628Z,20.90
2019-05-05T04:56:30.069Z,15.73
2019-05-05T05:06:36.562Z,17.40
2019-05-05T05:16:43.591Z,19.33
2019-05-05T05:26:47.824Z,19.23
2019-05-05T05:36:53.636Z,20.70
2019-05-05T05:47:05.199Z,24.60
2019-05-05T05:57:11.099Z,29.47
2019-05-05T06:07:15.876Z,25.13
2019-05-05T06:17:20.766Z,27.27
2019-05-05T06:27:25.529Z,28.77
2019-05-05T06:37:30.302Z,33.53
2019-05-05T06:47:36.943Z,39.50
2019-05-05T06:57:44.545Z,30.30
2019-05-05T07:07:49.371Z,32.37
2019-05-05T07:17:54.125Z,33.40
2019-05-05T07:27:58.913Z,31.63
2019-05-05T07:38:04.504Z,32.87
2019-05-05T07:48:09.552Z,32.90
2019-05-05T07:58:14.306Z,32.40
2019-05-05T08:08:20.676Z,41.20
2019-05-05T08:18:43.906Z,40.03
2019-05-05T08:28:56.464Z,27.90
2019-05-05T08:39:06.332Z,25.93
2019-05-05T08:49:11.102Z,26.83
2019-05-05T08:59:16.027Z,31.00
2019-05-05T09:09:20.983Z,30.07
2019-05-05T09:19:25.853Z,32.97
2019-05-05T09:29:46.561Z,33.07
2019-05-05T09:39:51.711Z,26.63
2019-05-05T09:49:57.091Z,28.80
2019-05-05T10:00:09.997Z,37.47
2019-05-05T10:10:15.464Z,41.80
2019-05-05T10:20:20.847Z,51.80
2019-05-05T10:30:25.870Z,34.73
2019-05-05T10:40:35.468Z,59.27
2019-05-05T10:50:40.463Z,45.60
2019-05-05T11:00:49.799Z,34.50
2019-05-05T11:10:54.552Z,21.17
2019-05-05T11:20:59.467Z,32.87
2019-05-05T11:31:04.528Z,22.37
2019-05-05T11:41:11.522Z,29.80
2019-05-05T11:51:16.320Z,30.57
2019-05-05T12:01:21.267Z,18.97
2019-05-05T12:11:26.117Z,26.77
2019-05-05T12:21:31.027Z,30.47
2019-05-05T12:31:37.356Z,23.23
2019-05-05T12:41:42.272Z,36.23
2019-05-05T12:51:47.329Z,18.70
2019-05-05T13:01:54.534Z,30.33
2019-05-05T13:11:58.636Z,25.83
2019-05-05T13:22:10.731Z,25.63
2019-05-05T13:32:15.573Z,32.93
2019-05-05T13:42:20.410Z,58.93
2019-05-05T13:52:25.169Z,34.93
2019-05-05T14:02:35.359Z,25.40
2019-05-05T14:12:40.185Z,25.37
2019-05-05T14:22:44.989Z,28.10
2019-05-05T14:32:49.834Z,23.03
2019-05-05T14:42:54.661Z,33.27
2019-05-05T14:52:59.489Z,20.67
2019-05-05T15:03:05.451Z,29.37
2019-05-05T15:13:10.824Z,26.10
2019-05-05T15:23:15.744Z,21.50
2019-05-05T15:33:20.603Z,25.70
2019-05-05T15:43:25.581Z,26.30
2019-05-05T15:53:31.984Z,19.43
2019-05-05T16:03:37.033Z,22.47
2019-05-05T16:13:43.947Z,19.53
2019-05-05T16:23:49.975Z,24.70
2019-05-05T16:33:54.981Z,22.47
2019-05-05T16:44:09.945Z,26.73
2019-05-05T16:54:21.683Z,21.10
2019-05-05T17:04:27.552Z,23.93
2019-05-05T17:14:34.815Z,22.73
2019-05-05T17:24:40.267Z,20.43
2019-05-05T17:34:45.733Z,17.20
2019-05-05T17:44:55.483Z,21.27
2019-05-05T17:55:04.658Z,27.33
2019-05-05T18:05:10.428Z,31.37
2019-05-05T18:15:34.170Z,33.37
2019-05-05T18:25:41.180Z,26.17
2019-05-05T18:35:48.563Z,23.60
2019-05-05T18:45:55.664Z,24.70
2019-05-05T18:56:01.299Z,32.87
2019-05-05T19:06:08.328Z,37.63
2019-05-05T19:16:14.208Z,41.07
2019-05-05T19:26:20.032Z,51.13
2019-05-05T19:36:34.141Z,48.43
2019-05-05T19:46:52.194Z,34.33
2019-05-05T19:56:57.712Z,21.67
2019-05-05T20:07:04.461Z,25.70
2019-05-05T20:17:28.149Z,31.53
2019-05-05T20:27:34.356Z,31.30
2019-05-05T20:37:44.369Z,27.37
2019-05-05T20:47:49.806Z,35.77
2019-05-05T20:57:55.280Z,42.70
2019-05-05T21:08:00.671Z,37.10
2019-05-05T21:18:06.056Z,34.60
2019-05-05T21:28:11.444Z,25.07
2019-05-05T21:38:16.523Z,38.60
2019-05-05T21:48:21.778Z,17.87
2019-05-05T21:58:28.711Z,16.07
2019-05-05T22:08:34.615Z,30.73
2019-05-05T22:18:40.128Z,10.70
2019-05-05T22:28:45.640Z,16.63
2019-05-05T22:38:51.007Z,11.57
2019-05-05T22:48:56.343Z,13.30
2019-05-05T22:59:01.310Z,19.97
2019-05-05T23:09:07.878Z,11.63
2019-05-05T23:19:12.959Z,9.43
2019-05-05T23:29:17.747Z,12.83
2019-05-05T23:39:24.311Z,9.33
2019-05-05T23:49:28.870Z,8.67
2019-05-05T23:59:33.666Z,6.90
